WEATHER DATA

YESTERDAY
Time Temp. Dewp. Hum. Wind dir Wind speed Wind gust Bar.
00:01 12.7 12.7 100 290 2.2 3.3 1013.6
00:41 12.8 12.8 100 284 2.2 3.3 1013.5
00:49 12.8 12.8 100 287 2.5 3.3 1013.5
00:58 12.9 12.9 100 289 2.5 3.3 1013.6
01:09 13 13 100 292 2.5 3.6 1013.5
01:21 13 13 100 289 2.5 3.6 1013.5
01:27 13.1 13.1 100 315 2.8 4.4 1013.5
02:36 13.3 13.3 100 315 3.1 5.3 1013.5
02:43 13.2 13.2 100 312 2.5 4.7 1013.5
02:56 13.2 13.2 100 295 2.5 3.3 1013.4
03:06 13.1 13.1 100 289 2.5 3.6 1013.4
03:11 13.1 13.1 100 286 2.5 3.3 1013.3
03:26 13 13 100 284 2.5 3.6 1013.3
03:36 13 13 100 282 2.2 3.1 1013.4
03:46 13 13 100 280 2.2 3.3 1013.2
03:50 13 13 100 276 2.2 3.3 1013.1
04:06 13 13 100 286 2.2 3.6 1013.1
04:14 12.9 12.9 100 280 2.2 3.1 1013
04:27 12.9 12.9 100 290 2.5 3.9 1012.9
04:37 12.9 12.9 100 292 2.5 4.2 1012.9
04:47 13 13 100 290 2.5 3.6 1012.9
04:48 13 13 100 296 2.8 3.9 1012.8
05:06 13 13 100 291 2.5 4.2 1012.8
05:14 13 13 100 293 2.5 3.9 1012.8
05:28 13 13 100 285 2.5 3.6 1012.8
05:36 13.1 13.1 100 286 2.5 3.6 1012.6
05:46 13.1 13.1 100 292 2.5 4.7 1012.6
05:55 13.1 13.1 100 314 2.5 4.2 1012.6
06:07 13.1 13.1 100 306 2.8 4.7 1012.6
06:16 13.1 13.1 100 298 2.5 4.2 1012.6
06:27 13 13 100 296 2.5 4.4 1012.6
06:37 13 13 100 311 2.5 4.4 1012.6
06:44 13 13 100 293 2.5 4.2 1012.7
06:55 13 13 100 293 2.5 3.6 1012.7
07:00 13 13 100 290 2.2 3.6 1012.8
07:13 13 13 100 316 2.8 4.7 1012.9
07:36 12.9 12.7 99 315 2.5 4.2 1012.9
07:48 12.9 12.7 99 307 2.5 4.2 1012.9
07:54 12.9 12.6 98 320 2.8 4.4 1012.9
08:07 12.9 12.6 98 309 2.5 4.7 1012.9
08:15 12.9 12.6 98 317 2.8 4.2 1012.8
08:39 12.9 12.6 98 284 2.5 3.6 1012.7
08:46 12.9 12.6 98 324 3.1 5.3 1012.8
08:58 13 12.7 98 305 2.8 4.4 1012.7
09:09 13 12.7 98 312 3.1 4.4 1012.7
09:16 13.1 12.6 97 300 2.8 4.2 1012.7
09:28 13.2 12.7 97 295 2.8 4.2 1012.8
09:38 13.3 12.8 97 298 2.8 4.7 1012.8
09:49 13.3 12.7 96 313 2.8 5 1012.8
09:58 13.3 12.7 96 319 2.8 5.6 1012.9
10:07 13.2 12.6 96 289 3.1 4.7 1012.9
10:19 13.3 12.7 96 308 3.3 5.8 1013
10:29 13.4 12.8 96 298 2.8 4.7 1013
10:39 13.4 12.6 95 312 3.1 6.7 1013
10:49 13.4 12.6 95 305 2.2 3.6 1013.1
10:59 13.3 12.5 95 300 3.1 4.4 1013.1
11:09 13.3 12.7 96 292 2.5 3.9 1013.1
11:18 13.4 12.8 96 289 2.8 5 1013.1
11:30 13.6 12.8 95 295 3.1 4.4 1013
11:40 13.5 12.6 94 350 3.9 6.9 1013.2
11:49 13.3 12.5 95 348 3.1 5.6 1013.2
11:59 13.3 12.8 97 347 2.8 4.4 1013.2
12:10 13.4 12.9 97 326 3.1 5.6 1013.1
12:20 13.5 12.9 96 297 2.5 4.4 1013.2
12:30 13.5 12.9 96 301 2.5 4.2 1013.1
12:40 13.6 13 96 297 2.5 3.9 1013
12:50 13.6 13 96 319 2.8 5.6 1012.9
13:00 13.7 13.1 96 306 3.1 5.8 1012.9
13:10 13.6 12.8 95 321 2.8 5.8 1012.9
13:21 13.5 12.9 96 301 2.8 4.7 1012.9
13:30 13.5 12.9 96 340 3.1 4.7 1012.9
13:40 13.6 13.1 97 348 2.8 4.4 1012.9
13:50 13.8 13.3 97 333 2.8 4.7 1012.8
14:01 14 13.5 97 333 3.1 5.3 1012.9
14:11 14 13.4 96 313 2.8 4.2 1012.9
14:20 13.9 13.3 96 317 2.5 3.9 1012.9
14:31 13.9 13.3 96 300 2.2 3.6 1012.9
14:41 13.9 13.3 96 294 2.2 3.3 1012.9
14:51 14 13.5 97 305 2.2 3.6 1012.8
15:01 14 13.4 96 295 2.8 3.9 1012.8
15:11 14 13.2 95 298 2.5 3.6 1012.8
15:21 14.1 13.5 96 287 2.5 3.6 1012.7
15:31 14.2 13.6 96 289 2.2 3.3 1012.7
15:42 14.2 13.6 96 291 2.5 3.6 1012.7
15:52 14.3 13.5 95 295 2.8 4.2 1012.6
16:01 14.3 13.5 95 302 2.5 4.4 1012.6
16:08 14.3 13.5 95 296 2.5 4.2 1012.6
16:32 14.1 13.1 94 291 2.5 3.9 1012.6
16:42 14.1 13.1 94 291 2.5 4.2 1012.5
16:52 14.2 13.2 94 286 2.5 3.9 1012.5
17:02 14.2 13.2 94 285 2.5 3.6 1012.4
17:12 14.2 13.1 93 287 2.5 3.6 1012.4
17:22 14.2 13.1 93 287 2.5 3.9 1012.4
17:28 14.3 13.2 93 284 2.5 3.6 1012.3
17:42 14.3 13.2 93 290 2.5 4.2 1012.4
17:52 14.3 13.2 93 292 2.5 4.4 1012.4
18:02 14.3 13 92 294 2.5 5.6 1012.4
18:13 14.3 13 92 291 2.5 5.6 1012.5
18:22 14.2 12.8 91 308 2.8 4.2 1012.5
18:32 14.1 12.7 91 307 2.5 3.9 1012.5
18:43 14.1 12.7 91 292 2.5 3.6 1012.5
18:53 14 12.7 92 298 2.5 3.6 1012.5
19:03 14 12.7 92 290 2.5 3.3 1012.5
19:13 13.9 12.6 92 283 2.2 3.3 1012.5
19:23 13.8 12.5 92 280 2.2 3.6 1012.4
19:33 13.8 12.7 93 281 2.2 3.1 1012.5
19:43 13.7 12.6 93 280 2.2 3.1 1012.4
19:54 13.7 12.6 93 280 1.9 2.8 1012.4
20:03 13.6 12.5 93 279 2.2 3.1 1012.4
20:13 13.6 12.5 93 280 2.2 3.3 1012.6
20:23 13.5 12.4 93 285 2.2 3.3 1012.6
20:34 13.5 12.6 94 281 2.2 3.1 1012.7
20:44 13.5 12.6 94 287 2.5 3.3 1012.7
20:53 13.4 12.5 94 283 2.2 3.1 1012.7
21:04 13.4 12.5 94 283 2.2 3.1 1012.8
21:14 13.4 12.5 94 284 2.5 3.3 1012.9
21:24 13.4 12.5 94 288 2.2 3.3 1013
21:34 13.4 12.5 94 334 2.5 4.2 1013.1
21:44 13.4 12.5 94 329 2.8 4.2 1013
21:54 13.4 12.5 94 315 2.5 3.3 1013.1
22:04 13.4 12.5 94 335 2.5 4.2 1013.1
22:15 13.3 12.4 94 304 2.5 3.9 1013
22:24 13.3 12.4 94 286 2.2 3.1 1013
22:35 13.2 12.3 94 283 2.2 2.8 1013
22:45 13.1 12.2 94 285 2.2 3.1 1013
22:54 13.1 12.2 94 279 2.2 3.3 1013
23:04 13.1 12.2 94 281 2.2 2.8 1013
23:15 13.1 12.3 95 280 1.9 3.1 1012.9
23:25 13 12.2 95 284 2.2 2.8 1013
23:35 13 12.2 95 276 1.9 2.8 1013
23:45 13 12.2 95 278 1.9 3.3 1013
23:55 13 12.2 95 275 1.9 3.1 1012.9

DAY STATISTIC

2021-09-17
TEMPERATURE
AVERAGE
13.4
HIGH
14.3
15:52
LOW
12.7
00:01
PRESSURE
AVERAGE
1012.9
HIGH
1013.6
00:01
LOW
1012.3
17:28
DEWPOINT
AVERAGE
12.9
HIGH
13.6
15:31
LOW
12.2
22:45
HUMIDITY
AVERAGE
96
HIGH
100
00:01
LOW
91
18:22
WIND SPEED
AVERAGE
2.5
HIGH
3.9
11:40
WIND GUST
AVERAGE
4.0
HIGH
6.9
11:40
WIND DIRECTION
PREVAILING
W
49.2%
N
3.8
NE
0.0
E
0.0
SE
0.0
S
0.0
SW
0.0
W
49.2
NW
47.0
TEMPERATURE (°C)
LOW
12.7
HIGH
14.3
AVERAGE
13.4
PRESSURE (hpa)
LOW
1012.3
HIGH
1013.6
AVERAGE
1012.9
DEVICE